Time;durP1;ratioP1;P1;durP2;ratioP2;P2;SDS_P1;SDS_P2;PMS_P1;PMS_P2;Temp;Humidity;BMP_temperature;BMP_pressure;BME280_temperature;BME280_humidity;BME280_pressure;Samples;Min_cycle;Max_cycle;Signal;HPM_P1;HPM_P2
2023/09/28 08:02:14;;;;;;;;;;;;;;;6.20;100.00;99923.22;5000866;28;20330;-87
2023/09/28 08:04:39;;;;;;;;;;;;;;;6.24;100.00;99924.91;5013565;28;19925;-86
2023/09/28 08:07:10;;;;;;;;;;;;;;;6.29;100.00;99924.78;5013640;28;19918;-89
2023/09/28 08:09:37;;;;;;;;;;;;;;;6.30;100.00;99923.88;5013741;28;19924;-88
2023/09/28 08:12:02;;;;;;;;;;;;;;;6.31;100.00;99923.84;5013431;28;19921;-92
2023/09/28 08:14:29;;;;;;;;;;;;;;;6.32;100.00;99925.59;5014809;28;19940;-87
2023/09/28 08:16:54;;;;;;;;;;;;;;;6.33;100.00;99935.22;5013318;28;19922;-88
2023/09/28 08:19:19;;;;;;;;;;;;;;;6.40;100.00;99929.78;5013316;28;19971;-87
2023/09/28 08:21:45;;;;;;;;;;;;;;;6.46;100.00;99938.44;5013428;28;19917;-86
2023/09/28 08:24:11;;;;;;;;;;;;;;;6.49;100.00;99933.09;5014483;28;19925;-87
2023/09/28 08:26:36;;;;;;;;;;;;;;;6.45;100.00;99935.84;5014427;28;19917;-86
2023/09/28 08:29:04;;;;;;;;;;;;;;;6.35;100.00;99925.50;5014331;28;19921;-86
2023/09/28 08:31:31;;;;;;;;;;;;;;;6.46;100.00;99929.66;5011797;28;19972;-86
2023/09/28 08:33:56;;;;;;;;;;;;;;;6.45;100.00;99930.56;5013996;28;19917;-86
2023/09/28 08:36:21;;;;;;;;;;;;;;;6.43;100.00;99921.81;5012905;28;20008;-87
2023/09/28 08:38:46;;;;;;;;;;;;;;;6.46;100.00;99935.78;5014229;28;20335;-86
2023/09/28 08:41:14;;;;;;;;;;;;;;;6.46;100.00;99927.00;5012828;28;19921;-86
2023/09/28 08:43:42;;;;;;;;;;;;;;;6.51;100.00;99919.88;5012890;28;20364;-86
2023/09/28 08:46:10;;;;;;;;;;;;;;;6.54;100.00;99919.78;5011284;28;19917;-87
2023/09/28 08:48:38;;;;;;;;;;;;;;;6.52;100.00;99924.25;5012519;28;20369;-87
2023/09/28 08:51:09;;;;;;;;;;;;;;;6.52;100.00;99924.25;5013331;28;19960;-88
2023/09/28 08:53:36;;;;;;;;;;;;;;;6.62;100.00;99923.13;5012301;28;19922;-89
2023/09/28 08:56:04;;;;;;;;;;;;;;;6.53;100.00;99911.03;5012838;28;19971;-88
2023/09/28 08:58:33;;;;;;;;;;;;;;;6.55;100.00;99909.22;5013845;28;19928;-88
2023/09/28 09:00:58;;;;;;;;;;;;;;;6.57;100.00;99905.69;5011852;28;19918;-88
2023/09/28 09:03:24;;;;;;;;;;;;;;;6.50;100.00;99897.09;5012167;28;19921;-87
2023/09/28 09:05:50;;;;;;;;;;;;;;;6.61;100.00;99899.47;5014140;28;20276;-87
2023/09/28 09:09:16;;;;;;;;;;;;;;;6.61;100.00;99905.59;5012209;28;19921;-87
2023/09/28 09:11:23;;;;;;;;;;;;;;;6.61;100.00;99910.00;5007819;28;19917;-88
2023/09/28 09:13:51;;;;;;;;;;;;;;;6.69;100.00;99901.00;5013384;28;19929;-87
2023/09/28 09:16:23;;;;;;;;;;;;;;;6.64;100.00;99905.50;5010496;28;20407;-93
2023/09/28 09:18:50;;;;;;;;;;;;;;;6.64;100.00;99910.78;5012271;28;19932;-87
2023/09/28 09:21:15;;;;;;;;;;;;;;;6.64;100.00;99912.56;5013403;28;19922;-88
2023/09/28 09:23:40;;;;;;;;;;;;;;;6.67;100.00;99905.44;5011993;28;19918;-87
2023/09/28 09:26:14;;;;;;;;;;;;;;;6.68;100.00;99915.06;5011848;28;19928;-88
2023/09/28 09:28:43;;;;;;;;;;;;;;;6.68;100.00;99907.16;5012167;28;20279;-86
2023/09/28 09:31:09;;;;;;;;;;;;;;;6.67;100.00;99915.97;5011815;28;19961;-87
2023/09/28 09:33:35;;;;;;;;;;;;;;;6.66;100.00;99908.97;5011890;28;20015;-87
2023/09/28 09:36:01;;;;;;;;;;;;;;;6.68;100.00;99915.06;5011692;28;20384;-88
2023/09/28 09:38:30;;;;;;;;;;;;;;;6.68;100.00;99914.19;5011860;28;19968;-87
2023/09/28 09:40:59;;;;;;;;;;;;;;;6.68;100.00;99916.81;5010790;28;19925;-87
2023/09/28 09:43:24;;;;;;;;;;;;;;;6.68;100.00;99915.06;5011714;28;19930;-87
2023/09/28 09:45:50;;;;;;;;;;;;;;;6.65;100.00;99909.88;5011651;28;20293;-87
2023/09/28 09:48:18;;;;;;;;;;;;;;;6.71;100.00;99912.34;5012917;28;19925;-87
2023/09/28 09:50:44;;;;;;;;;;;;;;;6.67;100.00;99909.81;5011647;28;19925;-87
2023/09/28 09:53:11;;;;;;;;;;;;;;;6.72;100.00;99913.22;5012760;28;19921;-87
2023/09/28 09:55:39;;;;;;;;;;;;;;;6.70;100.00;99913.28;5012422;28;19926;-88
2023/09/28 09:58:05;;;;;;;;;;;;;;;6.70;100.00;99921.16;5013209;28;19917;-84
2023/09/28 10:00:33;;;;;;;;;;;;;;;6.69;100.00;99921.22;5011470;28;19932;-88
2023/09/28 10:02:58;;;;;;;;;;;;;;;6.75;100.00;99917.53;5011895;28;19964;-86
2023/09/28 10:05:27;;;;;;;;;;;;;;;6.71;100.00;99917.59;5011907;28;19961;-88
2023/09/28 10:07:52;;;;;;;;;;;;;;;6.80;100.00;99923.56;5011474;28;20052;-87
2023/09/28 10:10:19;;;;;;;;;;;;;;;6.81;100.00;99922.66;5012709;28;20000;-87
2023/09/28 10:12:45;;;;;;;;;;;;;;;6.82;100.00;99921.75;5011143;28;19918;-87
2023/09/28 10:15:11;;;;;;;;;;;;;;;6.81;100.00;99915.63;5011216;28;20319;-89
2023/09/28 10:17:36;;;;;;;;;;;;;;;6.81;100.00;99902.47;5012734;28;20165;-89
2023/09/28 10:20:03;;;;;;;;;;;;;;;6.78;100.00;99899.03;5012576;28;19921;-86
2023/09/28 10:22:28;;;;;;;;;;;;;;;6.82;100.00;99903.31;5011041;28;19918;-87
2023/09/28 10:24:54;;;;;;;;;;;;;;;6.83;100.00;99897.13;5011168;28;20192;-87
2023/09/28 10:27:19;;;;;;;;;;;;;;;6.85;100.00;99893.56;5012377;28;19976;-86
2023/09/28 10:29:44;;;;;;;;;;;;;;;6.86;100.00;99892.69;5011008;28;20364;-87
2023/09/28 10:32:25;;;;;;;;;;;;;;;6.83;100.00;99894.50;5012367;28;19921;-88
2023/09/28 10:35:11;;;;;;;;;;;;;;;6.87;100.00;99901.44;5012482;28;19922;-87
2023/09/28 10:40:40;;;;;;;;;;;;;;;6.89;100.00;99910.16;5012318;28;20275;-87
2023/09/28 10:43:10;;;;;;;;;;;;;;;6.94;100.00;99908.28;5010829;28;19917;-87
2023/09/28 10:45:37;;;;;;;;;;;;;;;6.90;100.00;99906.63;5009494;28;19917;-87
2023/09/28 10:48:04;;;;;;;;;;;;;;;6.95;100.00;99909.13;5012222;28;19953;-87
2023/09/28 10:50:29;;;;;;;;;;;;;;;6.87;100.00;99897.00;5012137;28;19924;-87
2023/09/28 10:52:55;;;;;;;;;;;;;;;7.00;100.00;99889.66;5012076;28;19917;-87
2023/09/28 10:55:21;;;;;;;;;;;;;;;6.93;100.00;99896.00;5011247;28;19918;-87
2023/09/28 11:00:50;;;;;;;;;;;;;;;6.91;100.00;99896.03;5010607;28;19940;-86
2023/09/28 11:03:17;;;;;;;;;;;;;;;6.96;100.00;99895.06;5010726;28;19922;-87
2023/09/28 11:05:42;;;;;;;;;;;;;;;6.95;100.00;99888.91;5010225;28;20346;-89
2023/09/28 11:08:12;;;;;;;;;;;;;;;6.90;100.00;99890.81;5012211;28;20016;-91
2023/09/28 11:10:38;;;;;;;;;;;;;;;6.95;100.00;99888.06;5010693;28;19921;-87
2023/09/28 11:13:04;;;;;;;;;;;;;;;6.94;100.00;99878.41;5012322;28;19921;-92
2023/09/28 11:15:29;;;;;;;;;;;;;;;6.95;100.00;99878.38;5009232;28;19930;-88
2023/09/28 11:17:56;;;;;;;;;;;;;;;6.91;100.00;99871.47;5012090;28;20018;-87
2023/09/28 11:20:21;;;;;;;;;;;;;;;6.89;100.00;99871.53;5010396;28;20361;-89
2023/09/28 11:22:51;;;;;;;;;;;;;;;6.96;100.00;99866.94;5011938;28;19917;-88
2023/09/28 11:25:17;;;;;;;;;;;;;;;6.98;100.00;99872.19;5012803;28;19952;-87
2023/09/28 11:27:42;;;;;;;;;;;;;;;6.90;100.00;99867.97;5015451;28;19914;-87
2023/09/28 11:30:16;;;;;;;;;;;;;;;6.95;100.00;99867.84;5014237;28;19929;-88
2023/09/28 11:32:51;;;;;;;;;;;;;;;8.22;100.00;99874.72;5014144;28;19967;-87
2023/09/28 11:35:22;;;;;;;;;;;;;;;7.51;100.00;99861.03;5013826;28;20043;-85
2023/09/28 11:37:48;;;;;;;;;;;;;;;7.16;100.00;99866.38;5013638;28;20371;-85
2023/09/28 11:40:13;;;;;;;;;;;;;;;7.07;100.00;99862.25;5015264;28;19918;-85
2023/09/28 11:42:39;;;;;;;;;;;;;;;7.03;100.00;99862.38;5013948;28;19928;-85
2023/09/28 11:45:05;;;;;;;;;;;;;;;7.00;100.00;99860.66;5013194;28;20360;-85
2023/09/28 11:47:30;;;;;;;;;;;;;;;7.01;100.00;99851.03;5015116;28;19925;-85
2023/09/28 11:49:56;;;;;;;;;;;;;;;6.97;100.00;99854.63;5015255;28;19921;-86
2023/09/28 11:52:21;;;;;;;;;;;;;;;6.98;100.00;99853.75;5014799;28;19917;-85
2023/09/28 11:54:47;;;;;;;;;;;;;;;7.01;100.00;99856.28;5015047;28;19921;-85
2023/09/28 11:57:15;;;;;;;;;;;;;;;7.05;100.00;99852.66;4997450;28;19964;-84
2023/09/28 11:59:41;;;;;;;;;;;;;;;7.05;100.00;99857.91;5012721;28;19917;-85
2023/09/28 12:02:07;;;;;;;;;;;;;;;7.02;100.00;99844.81;5013225;28;19928;-85
2023/09/28 12:04:32;;;;;;;;;;;;;;;6.98;100.00;99841.41;5014547;28;19917;-84
2023/09/28 12:06:59;;;;;;;;;;;;;;;6.96;100.00;99835.34;5013559;28;20407;-85
2023/09/28 12:09:26;;;;;;;;;;;;;;;7.02;100.00;99843.06;5013283;28;19923;-85
2023/09/28 12:11:53;;;;;;;;;;;;;;;6.97;100.00;99841.47;5013581;28;19949;-85
2023/09/28 12:17:31;;;;;;;;;;;;;;;6.98;100.00;99836.16;5091658;23;20003;-84
2023/09/28 12:19:57;;;;;;;;;;;;;;;6.95;100.00;99830.97;5034376;28;20335;-84
2023/09/28 12:22:22;;;;;;;;;;;;;;;6.98;100.00;99840.56;5033230;28;20003;-84
2023/09/28 12:24:47;;;;;;;;;;;;;;;6.99;100.00;99837.88;5033439;28;19917;-84
2023/09/28 12:27:13;;;;;;;;;;;;;;;7.07;100.00;99835.03;5034093;28;19975;-85
2023/09/28 12:29:38;;;;;;;;;;;;;;;7.02;100.00;99832.53;5032166;28;20008;-85
2023/09/28 12:32:03;;;;;;;;;;;;;;;7.03;100.00;99834.25;5033398;28;19917;-84
2023/09/28 12:34:29;;;;;;;;;;;;;;;7.02;100.00;99836.91;5033990;28;19928;-85
2023/09/28 12:36:57;;;;;;;;;;;;;;;7.07;100.00;99841.16;5033933;28;19917;-85
2023/09/28 12:39:22;;;;;;;;;;;;;;;7.09;100.00;99839.34;5034065;28;20026;-85
2023/09/28 12:41:48;;;;;;;;;;;;;;;7.03;100.00;99833.38;5033993;28;20407;-84
2023/09/28 12:44:13;;;;;;;;;;;;;;;7.06;100.00;99839.44;5034075;28;20281;-85
2023/09/28 12:46:39;;;;;;;;;;;;;;;7.02;100.00;99831.66;5032809;28;19999;-84
2023/09/28 12:49:04;;;;;;;;;;;;;;;7.02;100.00;99835.16;5033784;28;20288;-84
2023/09/28 12:51:30;;;;;;;;;;;;;;;7.09;100.00;99830.59;5033625;28;20363;-84
2023/09/28 12:53:55;;;;;;;;;;;;;;;7.02;100.00;99829.91;5033666;28;19917;-85
2023/09/28 12:56:20;;;;;;;;;;;;;;;7.06;100.00;99818.34;5033644;28;20277;-84
2023/09/28 12:58:46;;;;;;;;;;;;;;;7.04;100.00;99824.59;5033549;28;19917;-85
2023/09/28 13:01:12;;;;;;;;;;;;;;;7.09;100.00;99813.00;5030910;28;19917;-85
2023/09/28 13:03:39;;;;;;;;;;;;;;;7.06;100.00;99818.34;5032045;28;19921;-88
2023/09/28 13:06:04;;;;;;;;;;;;;;;7.06;100.00;99815.72;5032227;28;19913;-84
2023/09/28 13:08:29;;;;;;;;;;;;;;;7.06;100.00;99813.09;5033390;28;20356;-84
2023/09/28 13:10:55;;;;;;;;;;;;;;;7.03;100.00;99812.31;5032181;28;19929;-84
2023/09/28 13:13:20;;;;;;;;;;;;;;;7.05;100.00;99803.47;5033359;28;19949;-84
2023/09/28 13:15:46;;;;;;;;;;;;;;;7.04;100.00;99799.09;5030184;28;19928;-84
2023/09/28 13:18:14;;;;;;;;;;;;;;;7.05;100.00;99798.19;5032404;28;19924;-84
2023/09/28 13:20:41;;;;;;;;;;;;;;;7.01;100.00;99801.81;5033081;28;19917;-84
2023/09/28 13:23:07;;;;;;;;;;;;;;;7.02;100.00;99795.66;5033228;28;19925;-85
2023/09/28 13:25:33;;;;;;;;;;;;;;;7.01;100.00;99793.06;5031794;28;19928;-84
2023/09/28 13:27:58;;;;;;;;;;;;;;;7.07;100.00;99798.16;5031699;28;19924;-84
2023/09/28 13:30:23;;;;;;;;;;;;;;;7.02;100.00;99790.38;5030363;28;20251;-83
2023/09/28 13:32:50;;;;;;;;;;;;;;;7.07;100.00;99792.91;5031583;28;19921;-83
2023/09/28 13:35:16;;;;;;;;;;;;;;;7.07;100.00;99795.53;5032836;28;20499;-84
2023/09/28 13:37:41;;;;;;;;;;;;;;;7.04;100.00;99793.81;5032789;28;20019;-84
2023/09/28 13:40:15;;;;;;;;;;;;;;;7.06;100.00;99786.75;5031566;28;20451;-84
2023/09/28 13:42:41;;;;;;;;;;;;;;;7.09;100.00;99784.00;5032701;28;20032;-85
2023/09/28 13:45:06;;;;;;;;;;;;;;;7.11;100.00;99788.38;5031397;28;20011;-84
2023/09/28 13:47:32;;;;;;;;;;;;;;;7.05;100.00;99784.16;5032246;28;20360;-84
2023/09/28 13:49:57;;;;;;;;;;;;;;;7.08;100.00;99777.03;5032670;28;20432;-85
2023/09/28 13:52:23;;;;;;;;;;;;;;;7.08;100.00;99777.03;5032610;28;20403;-82
2023/09/28 13:54:49;;;;;;;;;;;;;;;7.05;100.00;99782.41;5032788;28;19971;-84
2023/09/28 13:57:16;;;;;;;;;;;;;;;7.07;100.00;99771.81;5031829;28;19963;-84
2023/09/28 13:59:44;;;;;;;;;;;;;;;7.08;100.00;99777.03;5030314;28;19925;-84
2023/09/28 14:02:09;;;;;;;;;;;;;;;7.13;100.00;99774.25;5032564;28;19921;-83
2023/09/28 14:04:35;;;;;;;;;;;;;;;7.07;100.00;99777.94;5031092;28;20273;-84
2023/09/28 14:07:00;;;;;;;;;;;;;;;7.13;100.00;99776.03;5031532;28;19917;-85
2023/09/28 14:09:27;;;;;;;;;;;;;;;7.10;100.00;99766.47;5032506;28;19917;-84
2023/09/28 14:11:52;;;;;;;;;;;;;;;7.11;100.00;99762.91;5030722;28;20327;-84
2023/09/28 14:14:18;;;;;;;;;;;;;;;7.18;100.00;99764.47;5031251;28;20158;-84
2023/09/28 14:16:43;;;;;;;;;;;;;;;7.11;100.00;99770.78;5030415;28;19925;-87
2023/09/28 14:19:13;;;;;;;;;;;;;;;7.13;100.00;99762.84;5031102;28;19971;-84
2023/09/28 14:21:39;;;;;;;;;;;;;;;7.12;100.00;99750.59;5032160;28;19921;-84
2023/09/28 14:24:08;;;;;;;;;;;;;;;7.12;100.00;99754.09;5032047;28;19948;-84
2023/09/28 14:26:34;;;;;;;;;;;;;;;7.11;100.00;99762.03;5032003;28;20012;-85
2023/09/28 14:29:00;;;;;;;;;;;;;;;7.13;100.00;99761.06;5032049;28;19913;-84
2023/09/28 14:31:25;;;;;;;;;;;;;;;7.08;100.00;99761.22;5030903;28;20024;-84
2023/09/28 14:33:51;;;;;;;;;;;;;;;7.13;100.00;99766.34;5032055;28;19965;-82
2023/09/28 14:36:33;;;;;;;;;;;;;;;7.14;100.00;99762.81;5033639;28;19917;-88
2023/09/28 14:38:59;;;;;;;;;;;;;;;7.17;100.00;99756.59;5032010;28;19921;-83
2023/09/28 14:41:25;;;;;;;;;;;;;;;7.15;100.00;99748.75;5030637;28;19963;-83
2023/09/28 14:43:51;;;;;;;;;;;;;;;7.15;100.00;99758.38;5031938;28;20050;-83
2023/09/28 14:46:17;;;;;;;;;;;;;;;7.12;100.00;99755.88;5029430;28;20003;-83
2023/09/28 14:48:42;;;;;;;;;;;;;;;7.12;100.00;99751.47;5030568;28;19921;-84
2023/09/28 14:51:10;;;;;;;;;;;;;;;7.14;100.00;99746.16;5030046;28;19924;-90
2023/09/28 14:53:36;;;;;;;;;;;;;;;7.12;100.00;99754.09;5030616;28;19924;-84
2023/09/28 14:56:01;;;;;;;;;;;;;;;7.16;100.00;99760.13;5030433;28;19922;-84
2023/09/28 14:58:27;;;;;;;;;;;;;;;7.17;100.00;99759.22;5030536;28;19921;-84
2023/09/28 15:00:53;;;;;;;;;;;;;;;7.18;100.00;99755.66;5031361;28;20364;-83
2023/09/28 15:03:18;;;;;;;;;;;;;;;7.15;100.00;99751.38;5035787;28;19917;-84
2023/09/28 15:05:43;;;;;;;;;;;;;;;7.15;100.00;99754.00;5035590;28;19928;-84
2023/09/28 15:08:09;;;;;;;;;;;;;;;7.16;100.00;99744.31;5034510;28;19917;-83
2023/09/28 15:10:34;;;;;;;;;;;;;;;7.15;100.00;99743.47;5035784;28;19921;-85
2023/09/28 15:12:59;;;;;;;;;;;;;;;7.16;100.00;99750.44;5034650;28;20284;-83
2023/09/28 15:15:26;;;;;;;;;;;;;;;7.30;100.00;99750.03;5034149;28;20012;-84
2023/09/28 15:17:51;;;;;;;;;;;;;;;7.31;100.00;99741.22;5034001;28;19968;-83
2023/09/28 15:20:16;;;;;;;;;;;;;;;7.31;100.00;99735.97;5035488;28;19971;-84
2023/09/28 15:22:42;;;;;;;;;;;;;;;7.32;100.00;99742.94;5035372;28;19921;-83
2023/09/28 15:25:08;;;;;;;;;;;;;;;7.28;100.00;99738.69;5035237;28;19924;-83
2023/09/28 15:27:33;;;;;;;;;;;;;;;7.31;100.00;99735.97;5035288;28;19921;-84
2023/09/28 15:29:59;;;;;;;;;;;;;;;7.31;100.00;99737.72;5045951;28;20698;-85
2023/09/28 15:32:31;;;;;;;;;;;;;;;7.31;100.00;99738.59;5035496;28;20334;-90
2023/09/28 15:34:56;;;;;;;;;;;;;;;7.28;100.00;99739.53;5047518;28;19925;-88
2023/09/28 15:37:21;;;;;;;;;;;;;;;7.32;100.00;99734.19;5034039;28;19928;-83
2023/09/28 15:39:47;;;;;;;;;;;;;;;7.28;100.00;99733.41;5033589;28;19963;-84
2023/09/28 15:42:13;;;;;;;;;;;;;;;7.27;100.00;99736.94;5032969;28;19925;-84
2023/09/28 15:44:38;;;;;;;;;;;;;;;7.26;100.00;99732.59;5032104;28;19921;-84
2023/09/28 15:47:06;;;;;;;;;;;;;;;7.32;100.00;99729.75;5032376;28;19932;-84
2023/09/28 15:49:31;;;;;;;;;;;;;;;7.28;100.00;99738.69;5032576;28;19921;-84
2023/09/28 15:51:57;;;;;;;;;;;;;;;7.30;100.00;99734.22;5031909;28;19951;-84
2023/09/28 15:54:22;;;;;;;;;;;;;;;7.31;100.00;99743.00;5030526;28;20006;-84
2023/09/28 15:56:47;;;;;;;;;;;;;;;7.32;100.00;99740.31;5032210;28;19925;-84
2023/09/28 15:59:13;;;;;;;;;;;;;;;7.33;100.00;99749.09;5034236;28;19928;-84
2023/09/28 16:01:42;;;;;;;;;;;;;;;7.28;100.00;99739.53;5033060;28;19932;-87
2023/09/28 16:04:07;;;;;;;;;;;;;;;7.29;100.00;99745.66;5033943;28;20394;-87
2023/09/28 16:06:33;;;;;;;;;;;;;;;7.30;100.00;99747.41;5033119;28;19925;-87
2023/09/28 16:09:02;;;;;;;;;;;;;;;7.32;100.00;99748.22;5032380;28;19922;-85
2023/09/28 16:11:27;;;;;;;;;;;;;;;7.31;100.00;99751.78;5031203;28;19935;-85
2023/09/28 16:13:52;;;;;;;;;;;;;;;7.33;100.00;99757.84;5034160;28;20356;-86
2023/09/28 16:16:18;;;;;;;;;;;;;;;7.34;100.00;99756.97;5030934;28;19921;-85
2023/09/28 16:18:44;;;;;;;;;;;;;;;7.36;100.00;99752.50;5032512;28;19921;-84
2023/09/28 16:21:09;;;;;;;;;;;;;;;7.35;100.00;99758.66;5031875;28;19921;-84
2023/09/28 16:23:34;;;;;;;;;;;;;;;7.35;100.00;99760.44;5033160;28;19975;-88
2023/09/28 16:26:00;;;;;;;;;;;;;;;7.36;100.00;99763.03;5031385;28;19924;-81
2023/09/28 16:28:25;;;;;;;;;;;;;;;7.34;100.00;99767.50;5029221;28;19980;-84
2023/09/28 16:30:50;;;;;;;;;;;;;;;7.36;100.00;99760.41;5031038;28;19921;-84
2023/09/28 16:33:15;;;;;;;;;;;;;;;7.35;100.00;99761.31;5031344;28;19925;-84
2023/09/28 16:35:41;;;;;;;;;;;;;;;7.33;100.00;99763.13;5029612;28;19929;-85
2023/09/28 16:38:06;;;;;;;;;;;;;;;7.33;100.00;99760.50;5030592;28;19964;-86
2023/09/28 16:40:32;;;;;;;;;;;;;;;7.35;100.00;99760.44;5032628;28;19965;-83
2023/09/28 16:42:57;;;;;;;;;;;;;;;7.36;100.00;99759.56;5031810;28;19936;-84
2023/09/28 16:49:32;;;;;;;;;;;;;;;7.36;100.00;99763.03;4931471;29;19927;-88
2023/09/28 16:51:57;;;;;;;;;;;;;;;7.31;100.00;99762.31;4989905;28;19925;-84
2023/09/28 16:54:23;;;;;;;;;;;;;;;7.34;100.00;99759.59;5028519;28;20277;-86
2023/09/28 16:56:48;;;;;;;;;;;;;;;7.36;100.00;99752.50;5031151;28;20467;-84
2023/09/28 16:59:13;;;;;;;;;;;;;;;7.36;100.00;99756.91;5031370;28;20003;-85
2023/09/28 17:01:39;;;;;;;;;;;;;;;7.35;100.00;99749.91;5030219;28;19925;-85
2023/09/28 17:07:07;;;;;;;;;;;;;;;7.34;100.00;99751.69;5555438;23;19936;-84
2023/09/28 17:09:32;;;;;;;;;;;;;;;7.34;100.00;99756.06;5011968;28;19933;-84
2023/09/28 17:11:58;;;;;;;;;;;;;;;7.38;100.00;99755.94;5009358;28;20258;-85
2023/09/28 17:14:23;;;;;;;;;;;;;;;7.37;100.00;99759.50;5205218;23;19929;-84
2023/09/28 17:16:48;;;;;;;;;;;;;;;7.38;100.00;99760.34;5029135;28;19987;-84
2023/09/28 17:19:14;;;;;;;;;;;;;;;7.36;100.00;99757.75;5032019;28;20284;-84
2023/09/28 17:21:39;;;;;;;;;;;;;;;7.36;100.00;99752.50;5030954;28;20032;-83
2023/09/28 17:24:17;;;;;;;;;;;;;;;7.37;100.00;99759.50;5031186;28;19932;-85
2023/09/28 17:27:14;;;;;;;;;;;;;;;7.36;100.00;99747.22;5030869;28;19935;-86
2023/09/28 17:29:40;;;;;;;;;;;;;;;7.35;100.00;99745.50;5029139;28;20007;-84
2023/09/28 17:32:05;;;;;;;;;;;;;;;7.38;100.00;99750.66;5032158;28;20007;-84
2023/09/28 17:34:30;;;;;;;;;;;;;;;7.39;100.00;99757.69;5032892;28;20072;-87
2023/09/28 17:36:55;;;;;;;;;;;;;;;7.38;100.00;99755.09;5031807;28;20012;-85
2023/09/28 17:39:22;;;;;;;;;;;;;;;7.40;100.00;99753.25;5031456;28;19964;-85
2023/09/28 17:41:48;;;;;;;;;;;;;;;7.41;100.00;99761.13;5030863;28;19922;-85
2023/09/28 17:44:13;;;;;;;;;;;;;;;7.40;100.00;99764.69;5030191;28;19944;-85
2023/09/28 17:46:44;;;;;;;;;;;;;;;7.43;100.00;99764.56;5030017;28;19917;-91
2023/09/28 17:49:10;;;;;;;;;;;;;;;7.41;100.00;99755.00;5030907;28;19983;-83
2023/09/28 17:51:37;;;;;;;;;;;;;;;7.38;100.00;99769.13;5031270;28;19929;-89
2023/09/28 17:54:05;;;;;;;;;;;;;;;7.39;100.00;99765.59;5029205;28;19927;-85
2023/09/28 17:56:32;;;;;;;;;;;;;;;7.39;100.00;99773.50;5029780;28;20399;-85
2023/09/28 17:58:57;;;;;;;;;;;;;;;7.40;100.00;99769.97;5028442;28;20667;-85
2023/09/28 18:01:22;;;;;;;;;;;;;;;7.42;100.00;99768.13;5028221;28;19922;-93
2023/09/28 18:03:50;;;;;;;;;;;;;;;7.43;100.00;99775.09;5028239;28;19932;-86
2023/09/28 18:06:16;;;;;;;;;;;;;;;7.42;100.00;99770.78;5031639;28;20301;-86
2023/09/28 18:08:46;;;;;;;;;;;;;;;7.42;100.00;99777.81;5032180;28;19921;-89
2023/09/28 18:11:11;;;;;;;;;;;;;;;7.43;100.00;99785.66;5031544;28;19943;-85
2023/09/28 18:13:37;;;;;;;;;;;;;;;7.43;100.00;99793.56;5031568;28;19921;-85
2023/09/28 18:16:03;;;;;;;;;;;;;;;7.44;100.00;99795.31;5029206;28;19921;-85
2023/09/28 18:18:29;;;;;;;;;;;;;;;7.43;100.00;99795.34;5030020;28;19921;-85
2023/09/28 18:20:54;;;;;;;;;;;;;;;7.41;100.00;99797.19;5029461;28;20511;-85
2023/09/28 18:23:20;;;;;;;;;;;;;;;7.42;100.00;99796.28;5029754;28;19921;-85
2023/09/28 18:25:48;;;;;;;;;;;;;;;7.46;100.00;99796.13;5028787;28;20396;-85
2023/09/28 18:28:13;;;;;;;;;;;;;;;7.46;100.00;99803.16;5029410;28;19943;-84
2023/09/28 18:30:38;;;;;;;;;;;;;;;7.49;100.00;99805.72;5029939;28;19924;-85
2023/09/28 18:33:04;;;;;;;;;;;;;;;7.48;100.00;99808.41;5030378;28;20364;-87
2023/09/28 18:35:30;;;;;;;;;;;;;;;7.51;100.00;99803.03;5031758;28;20368;-84
2023/09/28 18:37:57;;;;;;;;;;;;;;;7.50;100.00;99802.19;5032082;28;20320;-84
2023/09/28 18:40:23;;;;;;;;;;;;;;;7.50;100.00;99806.56;5030166;28;19917;-84
2023/09/28 18:42:48;;;;;;;;;;;;;;;7.50;100.00;99812.72;5029157;28;19932;-84
2023/09/28 18:45:13;;;;;;;;;;;;;;;7.48;100.00;99803.97;5029907;28;19925;-85
2023/09/28 18:47:38;;;;;;;;;;;;;;;7.50;100.00;99812.72;5030343;28;20011;-84
2023/09/28 18:50:04;;;;;;;;;;;;;;;7.49;100.00;99808.34;5030764;28;20372;-85
2023/09/28 18:52:30;;;;;;;;;;;;;;;7.50;100.00;99814.47;5029483;28;20319;-84
2023/09/28 18:54:56;;;;;;;;;;;;;;;7.49;100.00;99818.03;5029806;28;20023;-84
2023/09/28 18:57:21;;;;;;;;;;;;;;;7.49;100.00;99815.41;5030791;28;19975;-84
2023/09/28 18:59:46;;;;;;;;;;;;;;;7.49;100.00;99813.63;5029030;28;19917;-84
2023/09/28 19:02:11;;;;;;;;;;;;;;;7.52;100.00;99815.31;5030310;28;19917;-84
2023/09/28 19:04:39;;;;;;;;;;;;;;;7.53;100.00;99814.38;5030413;28;20020;-86
2023/09/28 19:07:06;;;;;;;;;;;;;;;7.50;100.00;99815.38;5027718;28;21681;-84
2023/09/28 19:12:49;;;;;;;;;;;;;;;7.54;100.00;99818.75;4987516;28;19928;-87
2023/09/28 19:15:14;;;;;;;;;;;;;;;7.52;100.00;99823.22;5029546;28;19925;-84
2023/09/28 19:17:40;;;;;;;;;;;;;;;7.54;100.00;99829.31;5031633;28;19925;-84
2023/09/28 19:20:05;;;;;;;;;;;;;;;7.52;100.00;99826.72;5029764;28;20264;-87
2023/09/28 19:22:38;;;;;;;;;;;;;;;7.49;100.00;99832.09;5030384;28;19925;-89
2023/09/28 19:25:04;;;;;;;;;;;;;;;7.53;100.00;99838.13;5030526;28;19925;-87
2023/09/28 19:27:29;;;;;;;;;;;;;;;7.51;100.00;99839.94;5031460;28;19917;-84
2023/09/28 19:29:56;;;;;;;;;;;;;;;7.54;100.00;99835.44;5030244;28;19967;-84
2023/09/28 19:32:21;;;;;;;;;;;;;;;7.55;100.00;99834.53;5031577;28;19917;-88
2023/09/28 19:34:46;;;;;;;;;;;;;;;7.55;100.00;99834.53;5046498;28;19979;-84
2023/09/28 19:37:15;;;;;;;;;;;;;;;7.55;100.00;99841.59;5031425;28;19921;-87
2023/09/28 19:39:40;;;;;;;;;;;;;;;7.55;100.00;99839.81;5030471;28;19932;-86
2023/09/28 19:42:05;;;;;;;;;;;;;;;7.58;100.00;99846.78;5031182;28;19921;-83
2023/09/28 19:44:30;;;;;;;;;;;;;;;7.58;100.00;99841.50;5031548;28;19925;-84
2023/09/28 19:46:56;;;;;;;;;;;;;;;7.60;100.00;99839.69;5032763;28;19991;-83
2023/09/28 19:49:21;;;;;;;;;;;;;;;7.62;100.00;99840.50;5034708;28;20335;-84
2023/09/28 19:51:47;;;;;;;;;;;;;;;7.59;100.00;99843.22;5031618;28;19960;-83
2023/09/28 19:54:12;;;;;;;;;;;;;;;7.60;100.00;99839.69;5032164;28;20815;-84
2023/09/28 19:56:37;;;;;;;;;;;;;;;7.59;100.00;99837.94;5032140;28;19940;-84
2023/09/28 19:59:02;;;;;;;;;;;;;;;7.58;100.00;99841.50;5031833;28;19921;-84
2023/09/28 20:01:28;;;;;;;;;;;;;;;7.59;100.00;99848.50;5030120;28;20419;-83
2023/09/28 20:03:54;;;;;;;;;;;;;;;7.60;100.00;99834.41;5033823;28;19926;-85
2023/09/28 20:06:20;;;;;;;;;;;;;;;7.62;100.00;99835.22;5032231;28;19947;-84
2023/09/28 20:08:45;;;;;;;;;;;;;;;7.61;100.00;99837.00;5033591;28;19925;-83
2023/09/28 20:11:11;;;;;;;;;;;;;;;7.62;100.00;99835.22;5033066;28;19928;-83
2023/09/28 20:13:36;;;;;;;;;;;;;;;7.64;100.00;99836.03;5033472;28;19932;-83
2023/09/28 20:16:02;;;;;;;;;;;;;;;7.63;100.00;99839.59;5030942;28;19926;-83
2023/09/28 20:18:28;;;;;;;;;;;;;;;7.65;100.00;99837.75;5028969;28;19948;-85
2023/09/28 20:20:54;;;;;;;;;;;;;;;7.65;100.00;99837.75;5034204;28;20388;-83
2023/09/28 20:23:19;;;;;;;;;;;;;;;7.66;100.00;99838.63;5033566;28;19917;-87
2023/09/28 20:25:45;;;;;;;;;;;;;;;7.64;100.00;99843.94;5033647;28;20466;-84
2023/09/28 20:28:10;;;;;;;;;;;;;;;7.64;100.00;99846.56;5033296;28;19928;-84
2023/09/28 20:30:35;;;;;;;;;;;;;;;7.62;100.00;99841.34;5033045;28;20288;-88
2023/09/28 20:33:01;;;;;;;;;;;;;;;7.64;100.00;99838.66;5033685;28;19924;-83
2023/09/28 20:35:26;;;;;;;;;;;;;;;7.64;100.00;99841.31;5031364;28;19932;-84
2023/09/28 20:37:52;;;;;;;;;;;;;;;7.65;100.00;99837.75;5034312;28;20007;-85
2023/09/28 20:40:17;;;;;;;;;;;;;;;7.63;100.00;99831.69;5029188;28;20369;-84
2023/09/28 20:42:42;;;;;;;;;;;;;;;7.68;100.00;99831.53;5032356;28;19968;-85
2023/09/28 20:45:08;;;;;;;;;;;;;;;7.66;100.00;99836.88;5031576;28;19928;-85
2023/09/28 20:47:33;;;;;;;;;;;;;;;7.67;100.00;99838.56;5032889;28;19975;-84
2023/09/28 20:49:59;;;;;;;;;;;;;;;7.66;100.00;99839.50;5033804;28;19917;-87
2023/09/28 20:52:25;;;;;;;;;;;;;;;7.66;100.00;99839.50;5030226;28;19928;-83
2023/09/28 20:54:50;;;;;;;;;;;;;;;7.67;100.00;99835.94;5032038;28;19925;-85
2023/09/28 20:57:16;;;;;;;;;;;;;;;7.66;100.00;99841.25;5031102;28;20016;-86
2023/09/28 20:59:41;;;;;;;;;;;;;;;7.66;100.00;99846.53;5031245;28;19925;-85
2023/09/28 21:02:06;;;;;;;;;;;;;;;7.68;100.00;99845.59;5032606;28;19936;-85
2023/09/28 21:04:32;;;;;;;;;;;;;;;7.65;100.00;99843.03;5032379;28;19917;-85